Time,TemperatureF,DewpointF,PressureIn,WindDirection,WindDirectionDegrees,WindSpeedMPH,WindSpeedGustMPH,Humidity,HourlyPrecipIn,Conditions,Clouds,dailyrainin,SolarRadiationWatts/m^2,SoftwareType,DateUTC
2013-03-12 00:22:00,68.0,65.0,30.35,NNE,20,6.0,10.0,89,0.00,,,0.00,0.000000,,2013-03-12 10:22:00,
2013-03-12 00:32:00,68.0,65.0,30.35,NNE,20,6.0,10.0,89,0.00,,,0.00,0.000000,,2013-03-12 10:32:00,
2013-03-12 00:42:00,68.0,65.0,30.35,NNE,20,6.0,10.0,89,0.00,,,0.00,0.000000,,2013-03-12 10:42:00,
2013-03-12 00:52:00,68.0,65.0,30.35,NNE,20,6.0,10.0,89,0.00,,,0.00,0.000000,,2013-03-12 10:52:00,
2013-03-12 01:22:00,69.0,66.0,30.32,NE,36,7.0,13.0,90,0.00,,,0.00,0.000000,,2013-03-12 11:22:00,
2013-03-12 01:32:00,69.0,66.0,30.32,NE,36,7.0,13.0,90,0.00,,,0.00,0.000000,,2013-03-12 11:32:00,
2013-03-12 01:42:00,69.0,66.0,30.32,NE,36,7.0,13.0,90,0.00,,,0.00,0.000000,,2013-03-12 11:42:00,
2013-03-12 01:52:00,69.0,66.0,30.32,NE,36,7.0,13.0,90,0.00,,,0.00,0.000000,,2013-03-12 11:52:00,
2013-03-12 02:22:00,69.0,66.0,30.30,NNE,32,7.0,11.0,89,0.00,,,0.00,0.000000,,2013-03-12 12:22:00,
2013-03-12 02:32:00,69.0,66.0,30.30,NNE,32,7.0,11.0,89,0.00,,,0.00,0.000000,,2013-03-12 12:32:00,
2013-03-12 02:42:00,69.0,66.0,30.30,NNE,32,7.0,11.0,89,0.00,,,0.00,0.000000,,2013-03-12 12:42:00,
2013-03-12 02:52:00,69.0,66.0,30.30,NNE,32,7.0,11.0,89,0.00,,,0.00,0.000000,,2013-03-12 12:52:00,
2013-03-12 03:12:00,68.0,64.0,30.29,North,8,7.0,11.0,88,0.00,,,0.00,0.000000,,2013-03-12 13:12:00,
2013-03-12 03:22:00,68.0,64.0,30.29,North,8,7.0,11.0,88,0.00,,,0.00,0.000000,,2013-03-12 13:22:00,
2013-03-12 03:32:00,68.0,64.0,30.29,North,8,7.0,11.0,88,0.00,,,0.00,0.000000,,2013-03-12 13:32:00,
2013-03-12 03:42:00,68.0,64.0,30.29,North,8,7.0,11.0,88,0.00,,,0.00,0.000000,,2013-03-12 13:42:00,
2013-03-12 03:52:00,68.0,64.0,30.29,North,8,7.0,11.0,88,0.00,,,0.00,0.000000,,2013-03-12 13:52:00,
2013-03-12 04:22:00,68.0,65.0,30.26,NNE,30,9.0,13.0,89,0.00,,,0.00,0.000000,,2013-03-12 14:22:00,
2013-03-12 04:32:00,68.0,65.0,30.26,NNE,30,9.0,13.0,89,0.00,,,0.00,0.000000,,2013-03-12 14:32:00,
2013-03-12 04:42:00,68.0,65.0,30.26,NNE,30,9.0,13.0,89,0.00,,,0.00,0.000000,,2013-03-12 14:42:00,
2013-03-12 04:52:00,68.0,65.0,30.26,NNE,30,9.0,13.0,89,0.00,,,0.00,0.000000,,2013-03-12 14:52:00,
2013-03-12 05:12:00,67.0,64.0,30.27,NE,40,7.0,13.0,90,0.00,,,0.00,0.000000,,2013-03-12 15:12:00,
2013-03-12 05:22:00,67.0,64.0,30.27,NE,40,7.0,13.0,90,0.00,,,0.00,0.000000,,2013-03-12 15:22:00,
2013-03-12 05:32:00,67.0,64.0,30.27,NE,40,7.0,13.0,90,0.00,,,0.00,0.000000,,2013-03-12 15:32:00,
2013-03-12 05:42:00,67.0,64.0,30.27,NE,40,7.0,13.0,90,0.00,,,0.00,0.000000,,2013-03-12 15:42:00,
2013-03-12 05:52:00,67.0,64.0,30.27,NE,40,7.0,13.0,90,0.00,,,0.00,0.000000,,2013-03-12 15:52:00,
2013-03-12 06:22:00,69.0,66.0,30.29,NNE,18,9.0,14.0,90,0.00,,,0.00,0.000000,,2013-03-12 16:22:00,
2013-03-12 06:32:00,69.0,66.0,30.29,NNE,18,9.0,14.0,90,0.00,,,0.00,0.000000,,2013-03-12 16:32:00,
2013-03-12 06:42:00,69.0,66.0,30.29,NNE,18,9.0,14.0,90,0.00,,,0.00,0.000000,,2013-03-12 16:42:00,
2013-03-12 06:52:00,69.0,66.0,30.29,NNE,18,9.0,14.0,90,0.00,,,0.00,0.000000,,2013-03-12 16:52:00,
2013-03-12 06:53:00,69.0,67.0,30.30,NNE,30,12.0,17.0,92,0.00,,,0.00,0.000000,,2013-03-12 16:53:00,
2013-03-12 07:22:00,69.0,67.0,30.30,NNE,30,12.0,17.0,92,0.00,,,0.00,0.000000,,2013-03-12 17:22:00,
2013-03-12 07:33:00,69.0,67.0,30.30,NNE,30,12.0,17.0,92,0.00,,,0.00,0.000000,,2013-03-12 17:33:00,
2013-03-12 07:43:00,69.0,67.0,30.30,NNE,30,12.0,17.0,92,0.00,,,0.00,0.000000,,2013-03-12 17:43:00,
2013-03-12 08:12:00,68.0,65.0,30.32,NNE,31,11.0,19.0,91,0.00,,,0.00,0.000000,,2013-03-12 18:12:00,
2013-03-12 08:22:00,68.0,65.0,30.32,NNE,31,11.0,19.0,91,0.00,,,0.00,0.000000,,2013-03-12 18:22:00,
2013-03-12 08:33:00,68.0,65.0,30.32,NNE,31,11.0,19.0,91,0.00,,,0.00,0.000000,,2013-03-12 18:33:00,
2013-03-12 08:42:00,68.0,65.0,30.32,NNE,31,11.0,19.0,91,0.00,,,0.00,0.000000,,2013-03-12 18:42:00,
2013-03-12 08:52:00,68.0,65.0,30.32,NNE,31,11.0,19.0,91,0.00,,,0.00,0.000000,,2013-03-12 18:52:00,
2013-03-12 09:22:00,70.0,66.0,30.34,NNE,26,13.0,20.0,87,0.00,,,0.00,41.000000,,2013-03-12 19:22:00,
2013-03-12 09:32:00,70.0,66.0,30.34,NNE,26,13.0,20.0,87,0.00,,,0.00,41.000000,,2013-03-12 19:32:00,
2013-03-12 09:43:00,70.0,66.0,30.34,NNE,26,13.0,20.0,87,0.00,,,0.00,41.000000,,2013-03-12 19:43:00,
2013-03-12 09:52:00,70.0,66.0,30.34,NNE,26,13.0,20.0,87,0.00,,,0.00,41.000000,,2013-03-12 19:52:00,
2013-03-12 10:22:00,72.0,66.0,30.35,NE,42,12.0,19.0,82,0.00,,,0.00,161.000000,,2013-03-12 20:22:00,
2013-03-12 10:32:00,72.0,66.0,30.35,NE,42,12.0,19.0,82,0.00,,,0.00,161.000000,,2013-03-12 20:32:00,
2013-03-12 10:42:00,72.0,66.0,30.35,NE,42,12.0,19.0,82,0.00,,,0.00,161.000000,,2013-03-12 20:42:00,
2013-03-12 10:52:00,72.0,66.0,30.35,NE,42,12.0,19.0,82,0.00,,,0.00,161.000000,,2013-03-12 20:52:00,
2013-03-12 11:22:00,73.0,65.0,30.35,NE,40,10.0,19.0,77,0.00,,,0.00,343.000000,,2013-03-12 21:22:00,
2013-03-12 11:32:00,73.0,65.0,30.35,NE,40,10.0,19.0,77,0.00,,,0.00,343.000000,,2013-03-12 21:32:00,
2013-03-12 11:42:00,73.0,65.0,30.35,NE,40,10.0,19.0,77,0.00,,,0.00,343.000000,,2013-03-12 21:42:00,
2013-03-12 11:52:00,73.0,65.0,30.35,NE,40,10.0,19.0,77,0.00,,,0.00,343.000000,,2013-03-12 21:52:00,
2013-03-12 12:22:00,73.0,64.0,30.35,NE,47,10.0,15.0,74,0.00,,,0.00,463.000000,,2013-03-12 22:22:00,
2013-03-12 12:32:00,73.0,64.0,30.35,NE,47,10.0,15.0,74,0.00,,,0.00,463.000000,,2013-03-12 22:32:00,
2013-03-12 12:42:00,73.0,64.0,30.35,NE,47,10.0,15.0,74,0.00,,,0.00,463.000000,,2013-03-12 22:42:00,
2013-03-12 12:52:00,73.0,64.0,30.35,NE,47,10.0,15.0,74,0.00,,,0.00,463.000000,,2013-03-12 22:52:00,
2013-03-12 13:22:00,74.0,64.0,30.33,ENE,69,6.0,14.0,71,0.00,,,0.00,642.000000,,2013-03-12 23:22:00,
2013-03-12 13:34:00,74.0,64.0,30.33,ENE,69,6.0,14.0,71,0.00,,,0.00,642.000000,,2013-03-12 23:34:00,
2013-03-12 13:43:00,74.0,64.0,30.33,ENE,69,6.0,14.0,71,0.00,,,0.00,642.000000,,2013-03-12 23:43:00,
2013-03-12 13:52:00,74.0,64.0,30.33,ENE,69,6.0,14.0,71,0.00,,,0.00,642.000000,,2013-03-12 23:52:00,
2013-03-12 14:12:00,78.0,64.0,30.31,ENE,63,4.0,10.0,63,0.00,,,0.00,584.000000,,2013-03-13 00:12:00,
2013-03-12 14:22:00,78.0,64.0,30.31,ENE,63,4.0,10.0,63,0.00,,,0.00,584.000000,,2013-03-13 00:22:00,
2013-03-12 14:33:00,78.0,64.0,30.31,ENE,63,4.0,10.0,63,0.00,,,0.00,584.000000,,2013-03-13 00:33:00,
2013-03-12 14:42:00,78.0,64.0,30.31,ENE,63,4.0,10.0,63,0.00,,,0.00,584.000000,,2013-03-13 00:42:00,
2013-03-12 14:52:00,78.0,64.0,30.31,ENE,63,4.0,10.0,63,0.00,,,0.00,584.000000,,2013-03-13 00:52:00,
2013-03-12 15:12:00,74.0,66.0,30.30,SSW,195,5.0,10.0,75,0.00,,,0.00,817.000000,,2013-03-13 01:12:00,
2013-03-12 15:22:00,74.0,66.0,30.30,SSW,195,5.0,10.0,75,0.00,,,0.00,817.000000,,2013-03-13 01:22:00,
2013-03-12 15:32:00,74.0,66.0,30.30,SSW,195,5.0,10.0,75,0.00,,,0.00,817.000000,,2013-03-13 01:32:00,
2013-03-12 15:42:00,74.0,66.0,30.30,SSW,195,5.0,10.0,75,0.00,,,0.00,817.000000,,2013-03-13 01:42:00,
2013-03-12 15:52:00,74.0,66.0,30.30,SSW,195,5.0,10.0,75,0.00,,,0.00,817.000000,,2013-03-13 01:52:00,
2013-03-12 16:12:00,74.0,67.0,30.29,NNE,18,6.0,13.0,79,0.00,,,0.00,312.000000,,2013-03-13 02:12:00,
2013-03-12 16:22:00,74.0,67.0,30.29,NNE,18,6.0,13.0,79,0.00,,,0.00,312.000000,,2013-03-13 02:22:00,
2013-03-12 16:32:00,74.0,67.0,30.29,NNE,18,6.0,13.0,79,0.00,,,0.00,312.000000,,2013-03-13 02:32:00,
2013-03-12 16:42:00,74.0,67.0,30.29,NNE,18,6.0,13.0,79,0.00,,,0.00,312.000000,,2013-03-13 02:42:00,
2013-03-12 16:52:00,74.0,67.0,30.29,NNE,18,6.0,13.0,79,0.00,,,0.00,312.000000,,2013-03-13 02:52:00,
2013-03-12 17:12:00,72.0,63.0,30.28,North,7,10.0,18.0,74,0.00,,,0.00,275.000000,,2013-03-13 03:12:00,
2013-03-12 17:22:00,72.0,63.0,30.28,North,7,10.0,18.0,74,0.00,,,0.00,275.000000,,2013-03-13 03:22:00,
2013-03-12 17:32:00,72.0,63.0,30.28,North,7,10.0,18.0,74,0.00,,,0.00,275.000000,,2013-03-13 03:32:00,
2013-03-12 17:42:00,72.0,63.0,30.28,North,7,10.0,18.0,74,0.00,,,0.00,275.000000,,2013-03-13 03:42:00,
2013-03-12 17:51:00,72.0,63.0,30.28,North,7,10.0,18.0,74,0.00,,,0.00,275.000000,,2013-03-13 03:51:00,
2013-03-12 18:22:00,72.0,64.0,30.30,NNE,25,11.0,17.0,75,0.00,,,0.00,483.000000,,2013-03-13 04:22:00,
2013-03-12 18:32:00,72.0,64.0,30.30,NNE,25,11.0,17.0,75,0.00,,,0.00,483.000000,,2013-03-13 04:32:00,
2013-03-12 18:42:00,72.0,64.0,30.30,NNE,25,11.0,17.0,75,0.00,,,0.00,483.000000,,2013-03-13 04:42:00,
2013-03-12 18:52:00,72.0,64.0,30.30,NNE,25,11.0,17.0,75,0.00,,,0.00,483.000000,,2013-03-13 04:52:00,
2013-03-12 19:22:00,68.0,62.0,30.32,NE,39,13.0,19.0,80,0.00,,,0.00,330.000000,,2013-03-13 05:22:00,
2013-03-12 19:32:00,68.0,62.0,30.32,NE,39,13.0,19.0,80,0.00,,,0.00,330.000000,,2013-03-13 05:32:00,
2013-03-12 19:42:00,68.0,62.0,30.32,NE,39,13.0,19.0,80,0.00,,,0.00,330.000000,,2013-03-13 05:42:00,
2013-03-12 19:52:00,68.0,62.0,30.32,NE,39,13.0,19.0,80,0.00,,,0.00,330.000000,,2013-03-13 05:52:00,
2013-03-12 20:22:00,69.0,63.0,30.33,NNE,29,12.0,19.0,81,0.00,,,0.00,30.000000,,2013-03-13 06:22:00,
2013-03-12 20:32:00,69.0,63.0,30.33,NNE,29,12.0,19.0,81,0.00,,,0.00,30.000000,,2013-03-13 06:32:00,
2013-03-12 20:42:00,69.0,63.0,30.33,NNE,29,12.0,19.0,81,0.00,,,0.00,30.000000,,2013-03-13 06:42:00,
2013-03-12 20:52:00,69.0,63.0,30.33,NNE,29,12.0,19.0,81,0.00,,,0.00,30.000000,,2013-03-13 06:52:00,
2013-03-12 21:12:00,67.0,61.0,30.35,NNE,25,12.0,21.0,81,0.00,,,0.00,0.000000,,2013-03-13 07:12:00,
2013-03-12 21:22:00,67.0,61.0,30.35,NNE,25,12.0,21.0,81,0.00,,,0.00,0.000000,,2013-03-13 07:22:00,
2013-03-12 21:32:00,67.0,61.0,30.35,NNE,25,12.0,21.0,81,0.00,,,0.00,0.000000,,2013-03-13 07:32:00,
2013-03-12 21:42:00,67.0,61.0,30.35,NNE,25,12.0,21.0,81,0.00,,,0.00,0.000000,,2013-03-13 07:42:00,
2013-03-12 21:52:00,67.0,61.0,30.35,NNE,25,12.0,21.0,81,0.00,,,0.00,0.000000,,2013-03-13 07:52:00,
2013-03-12 22:22:00,67.0,62.0,30.37,NNE,23,16.0,23.0,85,0.00,,,0.00,0.000000,,2013-03-13 08:22:00,
2013-03-12 22:32:00,67.0,62.0,30.37,NNE,23,16.0,23.0,85,0.00,,,0.00,0.000000,,2013-03-13 08:32:00,
2013-03-12 22:42:00,67.0,62.0,30.37,NNE,23,16.0,23.0,85,0.00,,,0.00,0.000000,,2013-03-13 08:42:00,
2013-03-12 22:52:00,67.0,62.0,30.37,NNE,23,16.0,23.0,85,0.00,,,0.00,0.000000,,2013-03-13 08:52:00,
2013-03-12 23:12:00,68.0,63.0,30.38,NE,39,14.0,26.0,83,0.00,,,0.00,0.000000,,2013-03-13 09:12:00,
2013-03-12 23:22:00,68.0,63.0,30.38,NE,39,14.0,26.0,83,0.00,,,0.00,0.000000,,2013-03-13 09:22:00,
2013-03-12 23:32:00,68.0,63.0,30.38,NE,39,14.0,26.0,83,0.00,,,0.00,0.000000,,2013-03-13 09:32:00,
2013-03-12 23:42:00,68.0,63.0,30.38,NE,39,14.0,26.0,83,0.00,,,0.00,0.000000,,2013-03-13 09:42:00,
2013-03-12 23:52:00,68.0,63.0,30.38,NE,39,14.0,26.0,83,0.00,,,0.00,0.000000,,2013-03-13 09:52:00,